Time;durP1;ratioP1;P1;durP2;ratioP2;P2;SDS_P1;SDS_P2;PMS_P1;PMS_P2;Temp;Humidity;BMP_temperature;BMP_pressure;BME280_temperature;BME280_humidity;BME280_pressure;Samples;Min_cycle;Max_cycle;Signal;HPM_P1;HPM_P2
2022/05/03 00:00:33;;;;;;;;;;;;;;;;;;4988736;28;136332;-67
2022/05/03 00:03:00;;;;;;;;;;;;;;;;;;4979551;28;129121;-67
2022/05/03 00:05:27;;;;;;;;;;;;;;;;;;4986357;28;136611;-67
2022/05/03 00:07:53;;;;;;;;;;;;;;;;;;4982292;28;136313;-67
2022/05/03 00:10:20;;;;;;;;;;;;;;;;;;4987971;28;126426;-67
2022/05/03 00:12:46;;;;;;;;;;;;;;;;;;4984231;28;136269;-67
2022/05/03 00:15:12;;;;;;;;;;;;;;;;;;4976593;28;127957;-67
2022/05/03 00:17:39;;;;;;;;;;;;;;;;;;4982828;28;135844;-67
2022/05/03 00:20:05;;;;;;;;;;;;;;;;;;4980392;28;135886;-67
2022/05/03 00:22:32;;;;;;;;;;;;;;;;;;4982435;28;129894;-67
2022/05/03 00:24:59;;;;;;;;;;;;;;;;;;4983645;28;107509;-67
2022/05/03 00:27:25;;;;;;;;;;;;;;;;;;4982320;28;134621;-67
2022/05/03 00:29:51;;;;;;;;;;;;;;;;;;4985877;28;124573;-67
2022/05/03 00:32:18;;;;;;;;;;;;;;;;;;4986699;28;106718;-67
2022/05/03 00:34:44;;;;;;;;;;;;;;;;;;4986386;28;106537;-67
2022/05/03 00:37:11;;;;;;;;;;;;;;;;;;4990572;28;120301;-67
2022/05/03 00:39:37;;;;;;;;;;;;;;;;;;4981386;28;138454;-67
2022/05/03 00:42:03;;;;;;;;;;;;;;;;;;4980436;28;128063;-67
2022/05/03 00:47:14;;;;;;;;;;;;;;;;;;4986475;28;109324;-67
2022/05/03 00:49:41;;;;;;;;;;;;;;;;;;4983410;28;126946;-67
2022/05/03 00:52:07;;;;;;;;;;;;;;;;;;4981859;28;136709;-67
2022/05/03 00:54:33;;;;;;;;;;;;;;;;;;4984874;28;136284;-67
2022/05/03 00:57:00;;;;;;;;;;;;;;;;;;4987994;28;107328;-67
2022/05/03 00:59:26;;;;;;;;;;;;;;;;;;4972675;28;106743;-67
2022/05/03 01:01:52;;;;;;;;;;;;;;;;;;4987505;28;107487;-67
2022/05/03 01:04:19;;;;;;;;;;;;;;;;;;4986863;28;108724;-67
2022/05/03 01:06:45;;;;;;;;;;;;;;;;;;4983007;28;130310;-67
2022/05/03 01:09:12;;;;;;;;;;;;;;;;;;4980717;28;122325;-67
2022/05/03 01:11:38;;;;;;;;;;;;;;;;;;4982139;28;136038;-67
2022/05/03 01:14:04;;;;;;;;;;;;;;;;;;4992508;27;137380;-67
2022/05/03 01:16:30;;;;;;;;;;;;;;;;;;4986870;28;129995;-67
2022/05/03 01:18:57;;;;;;;;;;;;;;;;;;4985257;28;118872;-67
2022/05/03 01:21:23;;;;;;;;;;;;;;;;;;4984539;28;129597;-67
2022/05/03 01:23:50;;;;;;;;;;;;;;;;;;4983713;28;113944;-67
2022/05/03 01:26:17;;;;;;;;;;;;;;;;;;4985242;28;107579;-67
2022/05/03 01:28:43;;;;;;;;;;;;;;;;;;4978415;28;127773;-67
2022/05/03 01:31:09;;;;;;;;;;;;;;;;;;4984405;28;135640;-67
2022/05/03 01:33:36;;;;;;;;;;;;;;;;;;4984625;28;136712;-67
2022/05/03 01:36:02;;;;;;;;;;;;;;;;;;4976413;28;128623;-67
2022/05/03 01:38:28;;;;;;;;;;;;;;;;;;4976375;28;128649;-67
2022/05/03 01:40:55;;;;;;;;;;;;;;;;;;4982803;28;107556;-67
2022/05/03 01:43:21;;;;;;;;;;;;;;;;;;4978366;28;136500;-67
2022/05/03 01:45:47;;;;;;;;;;;;;;;;;;4981342;28;136787;-67
2022/05/03 01:48:14;;;;;;;;;;;;;;;;;;4982594;28;115037;-67
2022/05/03 01:50:40;;;;;;;;;;;;;;;;;;4986970;28;134198;-67
2022/05/03 01:53:06;;;;;;;;;;;;;;;;;;4985595;28;120477;-67
2022/05/03 01:55:33;;;;;;;;;;;;;;;;;;4985473;28;125764;-67
2022/05/03 01:57:59;;;;;;;;;;;;;;;;;;4987140;28;106838;-67
2022/05/03 02:00:25;;;;;;;;;;;;;;;;;;4979174;28;128692;-67
2022/05/03 02:02:54;;;;;;;;;;;;;;;;;;4982298;28;106094;-67
2022/05/03 02:05:21;;;;;;;;;;;;;;;;;;4986514;28;137846;-67
2022/05/03 02:07:52;;;;;;;;;;;;;;;;;;4977901;28;128793;-67
2022/05/03 02:10:18;;;;;;;;;;;;;;;;;;4980810;28;136464;-67
2022/05/03 02:12:44;;;;;;;;;;;;;;;;;;4984081;28;109860;-67
2022/05/03 02:15:11;;;;;;;;;;;;;;;;;;4983161;28;127896;-67
2022/05/03 02:17:38;;;;;;;;;;;;;;;;;;4985033;28;135056;-67
2022/05/03 02:20:04;;;;;;;;;;;;;;;;;;4986131;28;126964;-67
2022/05/03 02:22:30;;;;;;;;;;;;;;;;;;4984584;28;136161;-67
2022/05/03 02:24:57;;;;;;;;;;;;;;;;;;4980494;28;135714;-67
2022/05/03 02:27:23;;;;;;;;;;;;;;;;;;4987759;28;126994;-67
2022/05/03 02:29:49;;;;;;;;;;;;;;;;;;4976083;28;135866;-67
2022/05/03 02:32:16;;;;;;;;;;;;;;;;;;4985092;28;137657;-67
2022/05/03 02:34:42;;;;;;;;;;;;;;;;;;4982510;28;116313;-67
2022/05/03 02:37:08;;;;;;;;;;;;;;;;;;4986835;28;134620;-67
2022/05/03 02:39:35;;;;;;;;;;;;;;;;;;4982362;28;135688;-67
2022/05/03 02:42:01;;;;;;;;;;;;;;;;;;4988950;28;126242;-67
2022/05/03 02:44:28;;;;;;;;;;;;;;;;;;4982131;28;137201;-67
2022/05/03 02:46:54;;;;;;;;;;;;;;;;;;4980616;28;128066;-67
2022/05/03 02:49:20;;;;;;;;;;;;;;;;;;4981714;28;136612;-67
2022/05/03 02:51:47;;;;;;;;;;;;;;;;;;4984753;28;123552;-67
2022/05/03 02:54:13;;;;;;;;;;;;;;;;;;4982567;28;125117;-67
2022/05/03 02:56:39;;;;;;;;;;;;;;;;;;4986330;28;135359;-67
2022/05/03 02:59:06;;;;;;;;;;;;;;;;;;4979495;28;136566;-68
2022/05/03 03:01:48;;;;;;;;;;;;;;;;;;4985243;28;129352;-67
2022/05/03 03:04:14;;;;;;;;;;;;;;;;;;4985619;28;135803;-68
2022/05/03 03:06:41;;;;;;;;;;;;;;;;;;4988497;28;107664;-67
2022/05/03 03:09:07;;;;;;;;;;;;;;;;;;4977907;28;129128;-68
2022/05/03 03:11:33;;;;;;;;;;;;;;;;;;4986116;28;135821;-68
2022/05/03 03:14:00;;;;;;;;;;;;;;;;;;4984686;28;106011;-67
2022/05/03 03:16:26;;;;;;;;;;;;;;;;;;4981460;28;134770;-68
2022/05/03 03:18:54;;;;;;;;;;;;;;;;;;4985293;28;137721;-68
2022/05/03 03:21:20;;;;;;;;;;;;;;;;;;4978579;28;128431;-68
2022/05/03 03:23:47;;;;;;;;;;;;;;;;;;4986547;28;135078;-67
2022/05/03 03:26:13;;;;;;;;;;;;;;;;;;4982861;28;134210;-68
2022/05/03 03:28:39;;;;;;;;;;;;;;;;;;4982976;28;135912;-68
2022/05/03 03:31:06;;;;;;;;;;;;;;;;;;4981862;28;135594;-68
2022/05/03 03:33:34;;;;;;;;;;;;;;;;;;4983205;28;128700;-67
2022/05/03 03:36:00;;;;;;;;;;;;;;;;;;4980056;28;120645;-67
2022/05/03 03:38:27;;;;;;;;;;;;;;;;;;4977873;28;106318;-68
2022/05/03 03:40:53;;;;;;;;;;;;;;;;;;4985688;28;119203;-68
2022/05/03 03:43:20;;;;;;;;;;;;;;;;;;4972974;28;106376;-68
2022/05/03 03:45:46;;;;;;;;;;;;;;;;;;4975699;28;138935;-68
2022/05/03 03:48:12;;;;;;;;;;;;;;;;;;4983568;28;136207;-68
2022/05/03 03:50:39;;;;;;;;;;;;;;;;;;4980776;28;135733;-67
2022/05/03 03:53:05;;;;;;;;;;;;;;;;;;4980926;28;122723;-67
2022/05/03 03:55:32;;;;;;;;;;;;;;;;;;4974447;28;126201;-68
2022/05/03 03:57:58;;;;;;;;;;;;;;;;;;4979205;28;137147;-67
2022/05/03 04:00:24;;;;;;;;;;;;;;;;;;4972470;28;113940;-69
2022/05/03 04:02:51;;;;;;;;;;;;;;;;;;4978808;28;136390;-67
2022/05/03 04:05:17;;;;;;;;;;;;;;;;;;4977518;28;125166;-67
2022/05/03 04:07:43;;;;;;;;;;;;;;;;;;4977425;28;123396;-67
2022/05/03 04:10:10;;;;;;;;;;;;;;;;;;4967805;28;136990;-67
2022/05/03 04:12:36;;;;;;;;;;;;;;;;;;4982434;28;129893;-68
2022/05/03 04:15:02;;;;;;;;;;;;;;;;;;4969077;28;136477;-67
2022/05/03 04:17:28;;;;;;;;;;;;;;;;;;4971902;28;138011;-66
2022/05/03 04:19:55;;;;;;;;;;;;;;;;;;4982933;28;129911;-66
2022/05/03 04:22:21;;;;;;;;;;;;;;;;;;4972448;28;135051;-68
2022/05/03 04:24:48;;;;;;;;;;;;;;;;;;4979258;28;129847;-69
2022/05/03 04:27:15;;;;;;;;;;;;;;;;;;4982700;28;128329;-67
2022/05/03 04:29:41;;;;;;;;;;;;;;;;;;4987845;28;137363;-67
2022/05/03 04:32:08;;;;;;;;;;;;;;;;;;4973802;28;106805;-67
2022/05/03 04:34:34;;;;;;;;;;;;;;;;;;4977384;28;135047;-68
2022/05/03 04:37:00;;;;;;;;;;;;;;;;;;4971661;28;133934;-68
2022/05/03 04:39:27;;;;;;;;;;;;;;;;;;4977663;28;129419;-67
2022/05/03 04:41:53;;;;;;;;;;;;;;;;;;4976889;28;136609;-68
2022/05/03 04:44:19;;;;;;;;;;;;;;;;;;4987728;28;136628;-67
2022/05/03 04:46:46;;;;;;;;;;;;;;;;;;4980107;28;128943;-68
2022/05/03 04:49:12;;;;;;;;;;;;;;;;;;4974879;28;136169;-68
2022/05/03 04:51:38;;;;;;;;;;;;;;;;;;4973948;28;127575;-67
2022/05/03 04:54:05;;;;;;;;;;;;;;;;;;4973837;28;132651;-67
2022/05/03 04:56:32;;;;;;;;;;;;;;;;;;4974111;28;114497;-68
2022/05/03 04:58:58;;;;;;;;;;;;;;;;;;4983374;28;128078;-68
2022/05/03 05:01:25;;;;;;;;;;;;;;;;;;4978998;28;132445;-67
2022/05/03 05:03:51;;;;;;;;;;;;;;;;;;4982759;28;135793;-67
2022/05/03 05:06:19;;;;;;;;;;;;;;;;;;4981458;28;129458;-67
2022/05/03 05:08:45;;;;;;;;;;;;;;;;;;4980855;28;136103;-68
2022/05/03 05:11:11;;;;;;;;;;;;;;;;;;4970761;28;137562;-68
2022/05/03 05:13:38;;;;;;;;;;;;;;;;;;4987489;28;127081;-67
2022/05/03 05:16:04;;;;;;;;;;;;;;;;;;4978635;28;136430;-67
2022/05/03 05:18:30;;;;;;;;;;;;;;;;;;4985544;28;126763;-68
2022/05/03 05:20:57;;;;;;;;;;;;;;;;;;4980898;28;135882;-68
2022/05/03 05:23:26;;;;;;;;;;;;;;;;;;4988333;28;106557;-68
2022/05/03 05:25:52;;;;;;;;;;;;;;;;;;4974088;28;128485;-71
2022/05/03 05:28:19;;;;;;;;;;;;;;;;;;4979448;28;135514;-67
2022/05/03 05:30:45;;;;;;;;;;;;;;;;;;4975891;28;137145;-69
2022/05/03 05:33:11;;;;;;;;;;;;;;;;;;4983482;28;127934;-66
2022/05/03 05:35:40;;;;;;;;;;;;;;;;;;4980224;28;130065;-66
2022/05/03 05:38:06;;;;;;;;;;;;;;;;;;4974353;28;128602;-66
2022/05/03 05:40:32;;;;;;;;;;;;;;;;;;4977788;28;133401;-66
2022/05/03 05:42:59;;;;;;;;;;;;;;;;;;4982901;28;107938;-66
2022/05/03 05:45:25;;;;;;;;;;;;;;;;;;4978873;28;127260;-66
2022/05/03 05:47:51;;;;;;;;;;;;;;;;;;4976655;28;136391;-66
2022/05/03 05:50:17;;;;;;;;;;;;;;;;;;4985534;28;138696;-66
2022/05/03 05:55:29;;;;;;;;;;;;;;;;;;4986940;28;119645;-66
2022/05/03 05:57:55;;;;;;;;;;;;;;;;;;4978138;28;127043;-65
2022/05/03 06:00:21;;;;;;;;;;;;;;;;;;4977484;28;134157;-65
2022/05/03 06:02:48;;;;;;;;;;;;;;;;;;4987402;28;136382;-65
2022/05/03 06:05:14;;;;;;;;;;;;;;;;;;4984232;28;128705;-65
2022/05/03 06:07:40;;;;;;;;;;;;;;;;;;4980400;28;131726;-65
2022/05/03 06:10:07;;;;;;;;;;;;;;;;;;4981437;28;119222;-66
2022/05/03 06:12:33;;;;;;;;;;;;;;;;;;4981136;28;127458;-66
2022/05/03 06:14:59;;;;;;;;;;;;;;;;;;4985463;28;106076;-65
2022/05/03 06:17:25;;;;;;;;;;;;;;;;;;4981564;28;121782;-65
2022/05/03 06:19:52;;;;;;;;;;;;;;;;;;4985376;28;133688;-65
2022/05/03 06:22:20;;;;;;;;;;;;;;;;;;4984342;28;112160;-65
2022/05/03 06:24:47;;;;;;;;;;;;;;;;;;4978836;28;129189;-65
2022/05/03 06:27:13;;;;;;;;;;;;;;;;;;4977310;28;134634;-65
2022/05/03 06:29:41;;;;;;;;;;;;;;;;;;4980448;28;107574;-65
2022/05/03 06:32:07;;;;;;;;;;;;;;;;;;4974910;28;128420;-65
2022/05/03 06:34:34;;;;;;;;;;;;;;;;;;4979719;28;135688;-66
2022/05/03 06:37:00;;;;;;;;;;;;;;;;;;4986565;28;136245;-65
2022/05/03 06:39:26;;;;;;;;;;;;;;;;;;4984786;28;129833;-66
2022/05/03 06:41:53;;;;;;;;;;;;;;;;;;4979827;28;137508;-66
2022/05/03 06:44:19;;;;;;;;;;;;;;;;;;4976046;28;129408;-67
2022/05/03 06:46:45;;;;;;;;;;;;;;;;;;4979713;28;137148;-66
2022/05/03 06:49:12;;;;;;;;;;;;;;;;;;4979204;28;118534;-66
2022/05/03 06:51:38;;;;;;;;;;;;;;;;;;4973958;28;129218;-66
2022/05/03 06:54:04;;;;;;;;;;;;;;;;;;4974143;28;121399;-66
2022/05/03 06:56:35;;;;;;;;;;;;;;;;;;4978055;28;136516;-66
2022/05/03 06:59:02;;;;;;;;;;;;;;;;;;4984370;28;128882;-65
2022/05/03 07:01:28;;;;;;;;;;;;;;;;;;4987053;28;134016;-66
2022/05/03 07:03:54;;;;;;;;;;;;;;;;;;4984589;28;116573;-66
2022/05/03 07:06:21;;;;;;;;;;;;;;;;;;4976860;28;136507;-66
2022/05/03 07:08:48;;;;;;;;;;;;;;;;;;4981099;28;137949;-67
2022/05/03 07:11:17;;;;;;;;;;;;;;;;;;4976633;28;130168;-67
2022/05/03 07:13:43;;;;;;;;;;;;;;;;;;4976852;28;135581;-66
2022/05/03 07:16:15;;;;;;;;;;;;;;;;;;4979113;28;136067;-66
2022/05/03 07:24:12;;;;;;;;;;;;;;;;;;4988260;28;136576;-66
2022/05/03 07:26:38;;;;;;;;;;;;;;;;;;4970391;28;109285;-66
2022/05/03 07:29:04;;;;;;;;;;;;;;;;;;4973466;28;133805;-66
2022/05/03 07:31:31;;;;;;;;;;;;;;;;;;4978465;28;129458;-66
2022/05/03 07:33:57;;;;;;;;;;;;;;;;;;4976496;28;135277;-66
2022/05/03 07:36:23;;;;;;;;;;;;;;;;;;4978718;28;118828;-67
2022/05/03 07:38:50;;;;;;;;;;;;;;;;;;4969505;28;129221;-66
2022/05/03 07:41:16;;;;;;;;;;;;;;;;;;4974163;28;136233;-66
2022/05/03 07:43:43;;;;;;;;;;;;;;;;;;4971567;28;135741;-67
2022/05/03 07:46:09;;;;;;;;;;;;;;;;;;4972581;28;107595;-66
2022/05/03 07:48:35;;;;;;;;;;;;;;;;;;4967289;28;129497;-66
2022/05/03 07:51:02;;;;;;;;;;;;;;;;;;4971545;28;119127;-66
2022/05/03 07:53:28;;;;;;;;;;;;;;;;;;4966923;28;138902;-66
2022/05/03 07:55:54;;;;;;;;;;;;;;;;;;4980494;28;107503;-66
2022/05/03 07:58:22;;;;;;;;;;;;;;;;;;4979399;28;128278;-66
2022/05/03 08:00:48;;;;;;;;;;;;;;;;;;4982805;28;135827;-67
2022/05/03 08:03:14;;;;;;;;;;;;;;;;;;4976627;28;135521;-67
2022/05/03 08:05:41;;;;;;;;;;;;;;;;;;4988938;28;106481;-66
2022/05/03 08:08:07;;;;;;;;;;;;;;;;;;4986136;28;137280;-67
2022/05/03 08:10:33;;;;;;;;;;;;;;;;;;4979998;28;127465;-65
2022/05/03 08:13:00;;;;;;;;;;;;;;;;;;4985150;28;135895;-65
2022/05/03 08:15:26;;;;;;;;;;;;;;;;;;4987265;28;138359;-67
2022/05/03 08:17:52;;;;;;;;;;;;;;;;;;4979173;28;128576;-67
2022/05/03 08:20:18;;;;;;;;;;;;;;;;;;4989536;28;135886;-65
2022/05/03 08:22:45;;;;;;;;;;;;;;;;;;4986835;28;135939;-64
2022/05/03 08:25:11;;;;;;;;;;;;;;;;;;4978904;28;129287;-65
2022/05/03 08:27:38;;;;;;;;;;;;;;;;;;4989154;28;126218;-65
2022/05/03 08:30:05;;;;;;;;;;;;;;;;;;4983232;28;127840;-65
2022/05/03 08:32:31;;;;;;;;;;;;;;;;;;4980320;28;135754;-64
2022/05/03 08:34:57;;;;;;;;;;;;;;;;;;4987382;28;137857;-64
2022/05/03 08:42:53;;;;;;;;;;;;;;;;;;4985596;28;136388;-65
2022/05/03 08:45:24;;;;;;;;;;;;;;;;;;4989065;28;127943;-65
2022/05/03 08:47:50;;;;;;;;;;;;;;;;;;4981181;28;132826;-66
2022/05/03 08:50:18;;;;;;;;;;;;;;;;;;4989286;28;136368;-67
2022/05/03 08:52:44;;;;;;;;;;;;;;;;;;4988095;28;107065;-67
2022/05/03 08:55:11;;;;;;;;;;;;;;;;;;4986222;28;125422;-64
2022/05/03 08:57:37;;;;;;;;;;;;;;;;;;4989148;28;127978;-65
2022/05/03 09:00:05;;;;;;;;;;;;;;;;;;4979807;28;137072;-65
2022/05/03 09:02:33;;;;;;;;;;;;;;;;;;4976745;28;132027;-65
2022/05/03 09:05:00;;;;;;;;;;;;;;;;;;4987869;28;105960;-65
2022/05/03 09:07:26;;;;;;;;;;;;;;;;;;4978024;28;137620;-66
2022/05/03 09:09:52;;;;;;;;;;;;;;;;;;4978731;28;137901;-65
2022/05/03 09:12:20;;;;;;;;;;;;;;;;;;4991557;28;129737;-64
2022/05/03 09:14:46;;;;;;;;;;;;;;;;;;4974744;28;126945;-66
2022/05/03 09:17:13;;;;;;;;;;;;;;;;;;4986961;28;105987;-64
2022/05/03 09:19:39;;;;;;;;;;;;;;;;;;4978079;28;133364;-63
2022/05/03 09:24:52;;;;;;;;;;;;;;;;;;4979168;28;106590;-64
2022/05/03 09:27:18;;;;;;;;;;;;;;;;;;4983364;28;107702;-65
2022/05/03 09:29:44;;;;;;;;;;;;;;;;;;4984516;28;136304;-66
2022/05/03 09:32:11;;;;;;;;;;;;;;;;;;4975607;28;106629;-66
2022/05/03 09:34:37;;;;;;;;;;;;;;;;;;4984809;28;135185;-66
2022/05/03 09:37:08;;;;;;;;;;;;;;;;;;4981285;28;127883;-66
2022/05/03 09:39:37;;;;;;;;;;;;;;;;;;4976474;28;126276;-66
2022/05/03 09:42:04;;;;;;;;;;;;;;;;;;4987329;28;136263;-65
2022/05/03 09:44:36;;;;;;;;;;;;;;;;;;4979440;28;128106;-66
2022/05/03 09:47:06;;;;;;;;;;;;;;;;;;4984230;28;126650;-67
2022/05/03 09:49:34;;;;;;;;;;;;;;;;;;4987325;28;137019;-66
2022/05/03 09:52:00;;;;;;;;;;;;;;;;;;4986843;28;106568;-66
2022/05/03 09:54:28;;;;;;;;;;;;;;;;;;4981831;28;130468;-65
2022/05/03 09:56:54;;;;;;;;;;;;;;;;;;4985650;28;106167;-68
2022/05/03 09:59:21;;;;;;;;;;;;;;;;;;4982043;28;136594;-66
2022/05/03 10:01:47;;;;;;;;;;;;;;;;;;4981421;28;107430;-66
2022/05/03 10:04:13;;;;;;;;;;;;;;;;;;4980774;28;127915;-67
2022/05/03 10:06:40;;;;;;;;;;;;;;;;;;4982343;28;107555;-65
2022/05/03 10:09:07;;;;;;;;;;;;;;;;;;4973142;28;136302;-67
2022/05/03 10:11:34;;;;;;;;;;;;;;;;;;4981044;28;119674;-66
2022/05/03 10:14:00;;;;;;;;;;;;;;;;;;4982805;28;136493;-66
2022/05/03 10:21:57;;;;;;;;;;;;;;;;;;4980878;28;123891;-65
2022/05/03 10:24:23;;;;;;;;;;;;;;;;;;4971473;28;127024;-66
2022/05/03 10:26:50;;;;;;;;;;;;;;;;;;4981475;28;126110;-66
2022/05/03 10:29:16;;;;;;;;;;;;;;;;;;4976783;28;136619;-66
2022/05/03 10:31:43;;;;;;;;;;;;;;;;;;4981336;28;110779;-65
2022/05/03 10:34:10;;;;;;;;;;;;;;;;;;4973656;28;135346;-66
2022/05/03 10:36:36;;;;;;;;;;;;;;;;;;4976864;28;135808;-63
2022/05/03 10:39:02;;;;;;;;;;;;;;;;;;4987098;28;129269;-65
2022/05/03 10:41:28;;;;;;;;;;;;;;;;;;4982537;28;113602;-70
2022/05/03 10:43:55;;;;;;;;;;;;;;;;;;4981436;28;126201;-66
2022/05/03 10:46:21;;;;;;;;;;;;;;;;;;4976049;28;137768;-66
2022/05/03 10:48:48;;;;;;;;;;;;;;;;;;4984274;28;137867;-66
2022/05/03 10:51:16;;;;;;;;;;;;;;;;;;4977604;28;129162;-66
2022/05/03 10:53:42;;;;;;;;;;;;;;;;;;4981621;28;137134;-67
2022/05/03 10:56:09;;;;;;;;;;;;;;;;;;4967245;28;118732;-66
2022/05/03 10:58:35;;;;;;;;;;;;;;;;;;4975932;28;106333;-66
2022/05/03 11:01:02;;;;;;;;;;;;;;;;;;4990625;28;136004;-67
2022/05/03 11:03:28;;;;;;;;;;;;;;;;;;4981748;28;128405;-66
2022/05/03 11:05:55;;;;;;;;;;;;;;;;;;4967255;28;136712;-66
2022/05/03 11:08:21;;;;;;;;;;;;;;;;;;4980967;28;135760;-66
2022/05/03 11:10:47;;;;;;;;;;;;;;;;;;4979386;28;130147;-66
2022/05/03 11:13:14;;;;;;;;;;;;;;;;;;4986013;28;135880;-65
2022/05/03 11:15:40;;;;;;;;;;;;;;;;;;4982020;28;108011;-66
2022/05/03 11:18:06;;;;;;;;;;;;;;;;;;4980113;28;129509;-68
2022/05/03 11:20:33;;;;;;;;;;;;;;;;;;4980959;28;119967;-68
2022/05/03 11:22:59;;;;;;;;;;;;;;;;;;4990921;28;134858;-66
2022/05/03 11:25:25;;;;;;;;;;;;;;;;;;4980756;28;136546;-66
2022/05/03 11:27:53;;;;;;;;;;;;;;;;;;4974646;28;132645;-68
2022/05/03 11:30:19;;;;;;;;;;;;;;;;;;4970846;28;127618;-66
2022/05/03 11:32:45;;;;;;;;;;;;;;;;;;4973907;28;135452;-65
2022/05/03 11:35:12;;;;;;;;;;;;;;;;;;4983984;28;132284;-66
2022/05/03 11:37:39;;;;;;;;;;;;;;;;;;4979871;28;121241;-66
2022/05/03 11:40:06;;;;;;;;;;;;;;;;;;4984092;28;136587;-66
2022/05/03 11:42:32;;;;;;;;;;;;;;;;;;4980489;28;135858;-68
2022/05/03 11:44:58;;;;;;;;;;;;;;;;;;4976177;28;127868;-66
2022/05/03 11:47:25;;;;;;;;;;;;;;;;;;4986416;28;136149;-66
2022/05/03 11:49:51;;;;;;;;;;;;;;;;;;4987037;28;122031;-66
2022/05/03 11:57:48;;;;;;;;;;;;;;;;;;4990411;28;127931;-67
2022/05/03 12:00:14;;;;;;;;;;;;;;;;;;4982571;28;112434;-67
2022/05/03 12:02:41;;;;;;;;;;;;;;;;;;4986662;28;136355;-67
2022/05/03 12:05:07;;;;;;;;;;;;;;;;;;4986736;28;128406;-67
2022/05/03 12:07:34;;;;;;;;;;;;;;;;;;4979894;28;136477;-67
2022/05/03 12:10:00;;;;;;;;;;;;;;;;;;4988303;28;127287;-68
2022/05/03 12:12:43;;;;;;;;;;;;;;;;;;4985491;28;135061;-68
2022/05/03 12:15:10;;;;;;;;;;;;;;;;;;4983792;28;120353;-68
2022/05/03 12:17:36;;;;;;;;;;;;;;;;;;4978967;28;126195;-67
2022/05/03 12:20:05;;;;;;;;;;;;;;;;;;4983742;28;135614;-67
2022/05/03 12:22:32;;;;;;;;;;;;;;;;;;4983194;28;131700;-66
2022/05/03 12:24:58;;;;;;;;;;;;;;;;;;4988409;28;130179;-70
2022/05/03 12:27:25;;;;;;;;;;;;;;;;;;4987396;28;135456;-67
2022/05/03 12:29:51;;;;;;;;;;;;;;;;;;4979340;28;129309;-65
2022/05/03 12:32:18;;;;;;;;;;;;;;;;;;4979036;28;120990;-66
2022/05/03 12:34:44;;;;;;;;;;;;;;;;;;4985851;28;136345;-65
2022/05/03 12:37:12;;;;;;;;;;;;;;;;;;4988570;28;128386;-67
2022/05/03 12:39:39;;;;;;;;;;;;;;;;;;4987857;28;106893;-66
2022/05/03 12:42:05;;;;;;;;;;;;;;;;;;4985891;28;136802;-66
2022/05/03 12:44:32;;;;;;;;;;;;;;;;;;4982609;28;106126;-66
2022/05/03 12:46:58;;;;;;;;;;;;;;;;;;4977491;28;137119;-67
2022/05/03 12:49:25;;;;;;;;;;;;;;;;;;4981543;28;135438;-67
2022/05/03 12:51:52;;;;;;;;;;;;;;;;;;4979872;28;113920;-67
2022/05/03 12:54:18;;;;;;;;;;;;;;;;;;4987547;28;113293;-67
2022/05/03 12:59:29;;;;;;;;;;;;;;;;;;4987233;28;136277;-68
2022/05/03 13:01:57;;;;;;;;;;;;;;;;;;4980685;28;136845;-68
2022/05/03 13:04:23;;;;;;;;;;;;;;;;;;4973089;28;128882;-67
2022/05/03 13:06:50;;;;;;;;;;;;;;;;;;4982243;28;120596;-66
2022/05/03 13:09:16;;;;;;;;;;;;;;;;;;4979156;28;135948;-70
2022/05/03 13:11:44;;;;;;;;;;;;;;;;;;4988036;28;124539;-69
2022/05/03 13:14:10;;;;;;;;;;;;;;;;;;4977810;28;125471;-68
2022/05/03 13:16:37;;;;;;;;;;;;;;;;;;4989016;28;128025;-68
2022/05/03 13:19:03;;;;;;;;;;;;;;;;;;4974516;28;127005;-68
2022/05/03 13:21:30;;;;;;;;;;;;;;;;;;4986696;28;121246;-70
2022/05/03 13:23:56;;;;;;;;;;;;;;;;;;4975240;28;116767;-67
2022/05/03 13:26:23;;;;;;;;;;;;;;;;;;4969093;28;107279;-66
2022/05/03 13:28:49;;;;;;;;;;;;;;;;;;4976094;28;132816;-67
2022/05/03 13:31:16;;;;;;;;;;;;;;;;;;4979031;28;127074;-67
2022/05/03 13:33:42;;;;;;;;;;;;;;;;;;4980945;28;137364;-67
2022/05/03 13:41:51;;;;;;;;;;;;;;;;;;4976027;28;136749;-67
2022/05/03 13:44:18;;;;;;;;;;;;;;;;;;4978986;28;130355;-68
2022/05/03 13:46:45;;;;;;;;;;;;;;;;;;4977769;28;136185;-67
2022/05/03 13:49:14;;;;;;;;;;;;;;;;;;4979200;28;135516;-67
2022/05/03 13:51:40;;;;;;;;;;;;;;;;;;4987385;27;107211;-67
2022/05/03 13:54:06;;;;;;;;;;;;;;;;;;4996077;27;111307;-67
2022/05/03 13:56:32;;;;;;;;;;;;;;;;;;4986933;28;136169;-67
2022/05/03 13:58:59;;;;;;;;;;;;;;;;;;4986469;28;107924;-68
2022/05/03 14:01:25;;;;;;;;;;;;;;;;;;4976332;28;127839;-66
2022/05/03 14:03:52;;;;;;;;;;;;;;;;;;4980250;28;106116;-67
2022/05/03 14:06:18;;;;;;;;;;;;;;;;;;4983745;28;136076;-67
2022/05/03 14:08:45;;;;;;;;;;;;;;;;;;4982561;28;128620;-67
2022/05/03 14:11:13;;;;;;;;;;;;;;;;;;4987168;28;106048;-66
2022/05/03 14:13:40;;;;;;;;;;;;;;;;;;4987771;28;109576;-66
2022/05/03 14:16:06;;;;;;;;;;;;;;;;;;4986293;28;135627;-66
2022/05/03 14:18:32;;;;;;;;;;;;;;;;;;4986916;28;128370;-66
2022/05/03 14:20:59;;;;;;;;;;;;;;;;;;4980509;28;137233;-67
2022/05/03 14:23:25;;;;;;;;;;;;;;;;;;4981861;28;130362;-66
2022/05/03 14:25:51;;;;;;;;;;;;;;;;;;4980793;28;135450;-67
2022/05/03 14:28:19;;;;;;;;;;;;;;;;;;4983123;28;137520;-66
2022/05/03 14:30:45;;;;;;;;;;;;;;;;;;4980158;28;130107;-66
2022/05/03 14:33:11;;;;;;;;;;;;;;;;;;4987541;28;113658;-67
2022/05/03 14:35:38;;;;;;;;;;;;;;;;;;4981534;28;135762;-67
2022/05/03 14:38:04;;;;;;;;;;;;;;;;;;4988047;28;128721;-67
2022/05/03 14:40:30;;;;;;;;;;;;;;;;;;4987490;28;133400;-67
2022/05/03 14:42:57;;;;;;;;;;;;;;;;;;4973465;28;128983;-67
2022/05/03 14:45:23;;;;;;;;;;;;;;;;;;4984455;28;116346;-67
2022/05/03 14:47:49;;;;;;;;;;;;;;;;;;4982955;28;136910;-67
2022/05/03 14:50:16;;;;;;;;;;;;;;;;;;4986538;28;106344;-67
2022/05/03 14:52:43;;;;;;;;;;;;;;;;;;4973026;28;127487;-67
2022/05/03 14:55:09;;;;;;;;;;;;;;;;;;4975627;28;135630;-66
2022/05/03 15:03:06;;;;;;;;;;;;;;;;;;4986845;28;127989;-66
2022/05/03 15:05:32;;;;;;;;;;;;;;;;;;4974653;28;135343;-67
2022/05/03 15:07:58;;;;;;;;;;;;;;;;;;4984557;28;137081;-67
2022/05/03 15:10:26;;;;;;;;;;;;;;;;;;4986335;28;126379;-67
2022/05/03 15:12:52;;;;;;;;;;;;;;;;;;4972561;28;137177;-66
2022/05/03 15:15:21;;;;;;;;;;;;;;;;;;4981484;28;136260;-67
2022/05/03 15:17:47;;;;;;;;;;;;;;;;;;4978063;28;130563;-67
2022/05/03 15:20:14;;;;;;;;;;;;;;;;;;4981190;28;136050;-65
2022/05/03 15:25:25;;;;;;;;;;;;;;;;;;4972980;28;106847;-65
2022/05/03 15:27:51;;;;;;;;;;;;;;;;;;4983602;28;135721;-64
2022/05/03 15:30:17;;;;;;;;;;;;;;;;;;4983540;28;109805;-67
2022/05/03 15:32:44;;;;;;;;;;;;;;;;;;4976754;28;136766;-64
2022/05/03 15:35:10;;;;;;;;;;;;;;;;;;4975000;28;137772;-65
2022/05/03 15:37:36;;;;;;;;;;;;;;;;;;4980174;28;129273;-66
2022/05/03 15:40:03;;;;;;;;;;;;;;;;;;4984686;28;133905;-65
2022/05/03 15:42:33;;;;;;;;;;;;;;;;;;4982784;28;107658;-64
2022/05/03 15:45:00;;;;;;;;;;;;;;;;;;4980471;28;117758;-63
2022/05/03 15:47:26;;;;;;;;;;;;;;;;;;4974416;28;135714;-63
2022/05/03 15:49:53;;;;;;;;;;;;;;;;;;4978558;28;127542;-65
2022/05/03 15:52:25;;;;;;;;;;;;;;;;;;4976176;27;109649;-63
2022/05/03 15:54:54;;;;;;;;;;;;;;;;;;4981909;28;119968;-64
2022/05/03 15:57:21;;;;;;;;;;;;;;;;;;4985811;28;128652;-65
2022/05/03 15:59:47;;;;;;;;;;;;;;;;;;4976842;28;135224;-64
2022/05/03 16:02:14;;;;;;;;;;;;;;;;;;4983074;28;135443;-64
2022/05/03 16:04:41;;;;;;;;;;;;;;;;;;4981980;28;129837;-64
2022/05/03 16:07:07;;;;;;;;;;;;;;;;;;4981317;28;136735;-64
2022/05/03 16:09:33;;;;;;;;;;;;;;;;;;4983306;28;128488;-64
2022/05/03 16:11:59;;;;;;;;;;;;;;;;;;4986743;27;135453;-64
2022/05/03 16:14:26;;;;;;;;;;;;;;;;;;4982703;28;120806;-65
2022/05/03 16:16:52;;;;;;;;;;;;;;;;;;4985192;28;129321;-64
2022/05/03 16:19:27;;;;;;;;;;;;;;;;;;4983669;28;119521;-65
2022/05/03 16:21:53;;;;;;;;;;;;;;;;;;4982754;28;135715;-64
2022/05/03 16:24:20;;;;;;;;;;;;;;;;;;4983192;28;128504;-65
2022/05/03 16:26:47;;;;;;;;;;;;;;;;;;4987234;28;106754;-65
2022/05/03 16:29:14;;;;;;;;;;;;;;;;;;4983264;28;129155;-67
2022/05/03 16:31:40;;;;;;;;;;;;;;;;;;4979089;28;106933;-65
2022/05/03 16:34:06;;;;;;;;;;;;;;;;;;4982166;28;138641;-65
2022/05/03 16:42:09;;;;;;;;;;;;;;;;;;4976461;28;135660;-63
2022/05/03 16:44:35;;;;;;;;;;;;;;;;;;4986121;28;129255;-64
2022/05/03 16:47:02;;;;;;;;;;;;;;;;;;4984995;28;130953;-66
2022/05/03 16:49:28;;;;;;;;;;;;;;;;;;4988389;28;137942;-65
2022/05/03 16:51:54;;;;;;;;;;;;;;;;;;4981956;27;136315;-65
2022/05/03 16:54:25;;;;;;;;;;;;;;;;;;4984886;28;135656;-65
2022/05/03 16:56:52;;;;;;;;;;;;;;;;;;4990189;28;127760;-65
2022/05/03 16:59:20;;;;;;;;;;;;;;;;;;4979970;28;135538;-64
2022/05/03 17:01:46;;;;;;;;;;;;;;;;;;4983186;27;136466;-64
2022/05/03 17:04:12;;;;;;;;;;;;;;;;;;4983900;28;117605;-64
2022/05/03 17:06:39;;;;;;;;;;;;;;;;;;4989521;27;135420;-64
2022/05/03 17:09:05;;;;;;;;;;;;;;;;;;4980944;28;125952;-65
2022/05/03 17:11:32;;;;;;;;;;;;;;;;;;4992512;27;129708;-66
2022/05/03 17:13:58;;;;;;;;;;;;;;;;;;4982695;28;136379;-64
2022/05/03 17:16:24;;;;;;;;;;;;;;;;;;4984003;28;126196;-65